Time;durP1;ratioP1;P1;durP2;ratioP2;P2;SDS_P1;SDS_P2;PMS_P1;PMS_P2;Temp;Humidity;BMP_temperature;BMP_pressure;BME280_temperature;BME280_humidity;BME280_pressure;Samples;Min_cycle;Max_cycle;Signal;HPM_P1;HPM_P2
2022/09/12 00:00:31;;;;;;;8.95;8.05;;;12.60;90.50;;;;;;4985320;28;20030;-46
2022/09/12 00:02:57;;;;;;;8.43;7.63;;;12.50;90.50;;;;;;4984989;28;20034;-48
2022/09/12 00:05:23;;;;;;;9.18;8.18;;;12.50;90.50;;;;;;4990162;28;20037;-45
2022/09/12 00:07:49;;;;;;;9.52;8.63;;;12.50;90.40;;;;;;5005368;28;20089;-44
2022/09/12 00:10:16;;;;;;;10.00;9.02;;;12.50;90.50;;;;;;4981259;28;20035;-45
2022/09/12 00:12:41;;;;;;;9.55;8.55;;;12.50;90.40;;;;;;4969907;28;20454;-46
2022/09/12 00:15:08;;;;;;;8.45;7.65;;;12.50;90.40;;;;;;4972836;28;20110;-46
2022/09/12 00:17:34;;;;;;;8.88;8.07;;;12.50;90.50;;;;;;4991703;28;20061;-47
2022/09/12 00:20:00;;;;;;;9.88;8.98;;;12.50;90.50;;;;;;4988893;28;20030;-45
2022/09/12 00:22:26;;;;;;;9.45;8.55;;;12.50;90.60;;;;;;4989760;28;20115;-46
2022/09/12 00:24:52;;;;;;;9.23;8.38;;;12.50;90.60;;;;;;4988083;28;20030;-44
2022/09/12 00:27:17;;;;;;;10.35;9.00;;;12.50;90.70;;;;;;4987490;28;20114;-50
2022/09/12 00:29:43;;;;;;;10.77;9.77;;;12.50;90.70;;;;;;4989279;28;20030;-47
2022/09/12 00:32:08;;;;;;;11.40;10.30;;;12.50;90.70;;;;;;4979154;28;20034;-47
2022/09/12 00:34:35;;;;;;;10.18;9.18;;;12.50;90.80;;;;;;4980939;28;20050;-48
2022/09/12 00:37:03;;;;;;;11.20;10.20;;;12.50;90.80;;;;;;4987437;28;20096;-48
2022/09/12 00:39:29;;;;;;;10.20;9.20;;;12.50;90.90;;;;;;4989119;28;20052;-50
2022/09/12 00:41:54;;;;;;;8.82;7.97;;;12.50;90.90;;;;;;4990838;28;20448;-46
2022/09/12 00:44:20;;;;;;;10.70;9.70;;;12.50;91.00;;;;;;4992891;28;20042;-48
2022/09/12 00:46:49;;;;;;;11.40;10.30;;;12.50;91.00;;;;;;4983799;28;20085;-48
2022/09/12 00:49:26;;;;;;;11.77;9.90;;;12.60;91.00;;;;;;4974344;28;20368;-48
2022/09/12 00:52:04;;;;;;;10.20;9.20;;;12.50;90.90;;;;;;4990107;28;20351;-45
2022/09/12 00:54:36;;;;;;;9.63;8.63;;;12.60;90.90;;;;;;4986689;28;20117;-47
2022/09/12 00:57:06;;;;;;;9.75;8.75;;;12.60;91.00;;;;;;4980757;28;20050;-50
2022/09/12 00:59:50;;;;;;;9.32;8.40;;;12.60;91.10;;;;;;4973503;28;20171;-50
2022/09/12 01:02:16;;;;;;;9.75;8.40;;;12.60;91.10;;;;;;4986759;28;20030;-48
2022/09/12 01:04:46;;;;;;;9.98;8.98;;;12.60;91.10;;;;;;4973817;28;20029;-50
2022/09/12 01:07:14;;;;;;;10.38;9.38;;;12.60;91.20;;;;;;4990827;28;20033;-47
2022/09/12 01:09:41;;;;;;;8.85;8.05;;;12.60;91.10;;;;;;4993169;28;20026;-50
2022/09/12 01:12:08;;;;;;;9.93;9.00;;;12.60;91.20;;;;;;4979904;28;20049;-46
2022/09/12 01:14:34;;;;;;;9.98;9.05;;;12.60;91.20;;;;;;4992530;28;20046;-51
2022/09/12 01:17:00;;;;;;;9.00;8.10;;;12.60;91.30;;;;;;4989168;28;20114;-49
2022/09/12 01:19:50;;;;;;;9.98;8.98;;;12.60;91.20;;;;;;4991913;28;20028;-45
2022/09/12 01:22:35;;;;;;;9.77;8.77;;;12.60;91.10;;;;;;4992051;28;20030;-49
2022/09/12 01:25:30;;;;;;;9.82;8.88;;;12.60;91.20;;;;;;4991518;28;20023;-48
2022/09/12 01:28:30;;;;;;;9.18;8.27;;;12.60;91.10;;;;;;4992177;28;20411;-47
2022/09/12 01:31:10;;;;;;;11.38;10.23;;;12.60;91.20;;;;;;4992650;28;20106;-50
2022/09/12 01:34:06;;;;;;;8.77;7.88;;;12.50;91.10;;;;;;4991933;28;20030;-47
2022/09/12 01:36:47;;;;;;;10.30;9.10;;;12.50;91.10;;;;;;4992184;28;20518;-47
2022/09/12 01:39:34;;;;;;;9.52;8.63;;;12.50;91.00;;;;;;4992872;28;20029;-48
2022/09/12 01:42:09;;;;;;;13.38;10.57;;;12.50;91.00;;;;;;4991681;28;20069;-50
2022/09/12 01:44:58;;;;;;;10.48;9.48;;;12.40;91.10;;;;;;5007916;28;20038;-50
2022/09/12 01:47:42;;;;;;;10.93;9.82;;;12.40;91.20;;;;;;4981372;28;20054;-48
2022/09/12 01:50:40;;;;;;;10.68;9.35;;;12.40;91.10;;;;;;4977494;28;20038;-48
2022/09/12 01:53:37;;;;;;;11.98;10.77;;;12.40;91.20;;;;;;4977525;28;20046;-47
2022/09/12 01:56:10;;;;;;;11.45;10.35;;;12.40;91.20;;;;;;4981544;28;20117;-48
2022/09/12 01:58:46;;;;;;;11.55;10.35;;;12.40;91.20;;;;;;4992329;28;20033;-46
2022/09/12 02:01:20;;;;;;;10.77;9.68;;;12.40;91.10;;;;;;4990508;28;20046;-47
2022/09/12 02:03:57;;;;;;;10.95;9.85;;;12.40;91.20;;;;;;4986549;28;20388;-46
2022/09/12 02:06:34;;;;;;;11.73;10.52;;;12.40;91.20;;;;;;4986864;28;20422;-46
2022/09/12 02:09:15;;;;;;;12.10;10.90;;;12.40;91.20;;;;;;4992325;28;20038;-45
2022/09/12 02:11:43;;;;;;;11.65;10.55;;;12.40;91.30;;;;;;4991426;28;20054;-48
2022/09/12 02:14:14;;;;;;;11.98;10.73;;;12.40;91.30;;;;;;4973388;28;20089;-46
2022/09/12 02:16:46;;;;;;;12.80;11.50;;;12.50;91.50;;;;;;4985863;28;20054;-46
2022/09/12 02:19:19;;;;;;;14.07;12.57;;;12.50;91.70;;;;;;4983026;28;20030;-45
2022/09/12 02:21:54;;;;;;;14.38;12.88;;;12.70;92.00;;;;;;4991346;28;20030;-46
2022/09/12 02:24:24;;;;;;;13.45;12.07;;;12.80;92.10;;;;;;4982391;28;20105;-46
2022/09/12 02:26:58;;;;;;;16.33;13.25;;;12.90;92.10;;;;;;4990355;28;20046;-48
2022/09/12 02:29:24;;;;;;;14.68;13.18;;;12.90;92.10;;;;;;4990517;28;20038;-46
2022/09/12 02:32:07;;;;;;;14.18;12.70;;;13.00;92.20;;;;;;4979859;28;20340;-46
2022/09/12 02:34:49;;;;;;;13.27;11.98;;;13.00;92.10;;;;;;5006038;28;20027;-47
2022/09/12 02:37:33;;;;;;;13.93;12.52;;;13.00;92.10;;;;;;4991206;28;20036;-48
2022/09/12 02:39:59;;;;;;;13.40;12.10;;;13.00;92.00;;;;;;4991901;28;20105;-48
2022/09/12 02:42:29;;;;;;;12.27;10.65;;;12.90;91.90;;;;;;4989718;28;20460;-45
2022/09/12 02:44:56;;;;;;;12.98;11.57;;;12.90;91.90;;;;;;4995057;28;20062;-47
2022/09/12 02:47:36;;;;;;;13.40;12.20;;;12.90;91.80;;;;;;4983986;28;20030;-51
2022/09/12 02:50:04;;;;;;;13.40;12.00;;;12.90;91.80;;;;;;4972009;28;20326;-50
2022/09/12 02:52:30;;;;;;;12.60;11.40;;;12.90;91.80;;;;;;4988334;28;20047;-49
2022/09/12 02:54:57;;;;;;;12.70;11.40;;;12.80;91.80;;;;;;4991204;28;20030;-47
2022/09/12 02:57:23;;;;;;;14.32;12.85;;;12.80;91.90;;;;;;4989999;28;20065;-48
2022/09/12 02:59:53;;;;;;;14.95;13.45;;;12.80;91.90;;;;;;5006374;28;20049;-48
2022/09/12 03:02:31;;;;;;;15.48;13.90;;;12.80;91.90;;;;;;4978395;28;20381;-49
2022/09/12 03:05:17;;;;;;;13.80;12.40;;;12.80;91.90;;;;;;4990837;28;20358;-48
2022/09/12 03:07:55;;;;;;;14.32;12.25;;;12.80;91.90;;;;;;4988910;28;20026;-49
2022/09/12 03:10:33;;;;;;;14.07;12.57;;;12.70;91.90;;;;;;4990765;28;20030;-51
2022/09/12 03:13:16;;;;;;;13.10;11.77;;;12.70;91.90;;;;;;4989749;28;20084;-50
2022/09/12 03:16:03;;;;;;;15.63;14.13;;;12.70;91.90;;;;;;4988898;28;20023;-50
2022/09/12 03:19:00;;;;;;;17.30;15.60;;;12.70;92.10;;;;;;4975839;28;20031;-50
2022/09/12 03:21:36;;;;;;;19.83;17.83;;;12.80;92.40;;;;;;5003353;28;20023;-47
2022/09/12 03:24:51;;;;;;;20.63;18.42;;;12.90;92.50;;;;;;4989226;28;20157;-50
2022/09/12 03:27:20;;;;;;;22.00;19.30;;;13.00;92.60;;;;;;4981051;28;20042;-52
2022/09/12 03:29:50;;;;;;;21.60;19.40;;;13.00;92.70;;;;;;4988501;28;20049;-52
2022/09/12 03:32:15;;;;;;;;;;;13.10;92.70;;;;;;4980841;28;20094;-52
2022/09/12 03:34:41;;;;;;;22.10;19.77;;;13.10;92.70;;;;;;5001032;28;19914;-51
2022/09/12 03:37:06;;;;;;;23.75;21.27;;;13.10;92.70;;;;;;4984026;28;20030;-52
2022/09/12 03:39:32;;;;;;;22.10;19.80;;;13.10;92.70;;;;;;4989137;28;20363;-51
2022/09/12 03:41:58;;;;;;;21.98;19.73;;;13.20;92.80;;;;;;4989349;28;20034;-48
2022/09/12 03:44:23;;;;;;;22.52;20.20;;;13.10;92.80;;;;;;4988487;28;20810;-53
2022/09/12 03:46:49;;;;;;;20.73;18.52;;;13.20;92.80;;;;;;4978754;28;20614;-52
2022/09/12 03:49:15;;;;;;;21.45;19.25;;;13.20;92.80;;;;;;4980312;28;20160;-50
2022/09/12 03:51:42;;;;;;;24.60;20.50;;;13.20;92.70;;;;;;4988581;28;20029;-52
2022/09/12 03:54:07;;;;;;;24.77;20.52;;;13.10;92.80;;;;;;4989476;28;20030;-51
2022/09/12 03:56:34;;;;;;;22.58;19.48;;;13.20;92.80;;;;;;5003941;28;20061;-53
2022/09/12 03:59:00;;;;;;;23.75;20.90;;;13.20;92.90;;;;;;4980704;28;20042;-51
2022/09/12 04:01:28;;;;;;;25.00;21.42;;;13.20;92.90;;;;;;4974956;28;20031;-53
2022/09/12 04:03:53;;;;;;;23.30;20.75;;;13.20;92.80;;;;;;4976691;28;20030;-49
2022/09/12 04:06:21;;;;;;;23.73;21.05;;;13.20;92.80;;;;;;4983097;28;20101;-52
2022/09/12 04:08:49;;;;;;;22.70;20.20;;;13.20;92.80;;;;;;4977383;28;20049;-50
2022/09/12 04:11:18;;;;;;;25.92;20.65;;;13.10;92.80;;;;;;4989694;28;20042;-50
2022/09/12 04:13:44;;;;;;;22.73;20.25;;;13.10;92.90;;;;;;4990231;28;20026;-50
2022/09/12 04:16:12;;;;;;;22.65;20.25;;;13.20;92.90;;;;;;4982867;28;20106;-49
2022/09/12 04:18:37;;;;;;;25.10;20.67;;;13.20;92.90;;;;;;4986642;28;20054;-51
2022/09/12 04:21:11;;;;;;;23.08;20.67;;;13.20;92.80;;;;;;4989101;28;20627;-49
2022/09/12 04:23:37;;;;;;;26.70;20.23;;;13.20;92.90;;;;;;4989072;28;20088;-49
2022/09/12 04:26:07;;;;;;;23.50;21.20;;;13.20;92.90;;;;;;4988933;28;20355;-55
2022/09/12 04:28:33;;;;;;;;;;;13.20;92.90;;;;;;4989562;28;20045;-53
2022/09/12 04:31:19;;;;;;;22.35;19.88;;;13.10;92.80;;;;;;4983726;28;19967;-53
2022/09/12 04:33:45;;;;;;;24.55;21.83;;;13.10;92.80;;;;;;4973718;28;20121;-54
2022/09/12 04:36:17;;;;;;;24.88;21.70;;;13.20;92.80;;;;;;4982844;28;20440;-49
2022/09/12 04:38:44;;;;;;;26.95;22.52;;;13.20;92.80;;;;;;4994308;28;20434;-50
2022/09/12 04:41:14;;;;;;;24.80;22.25;;;13.20;92.70;;;;;;5014412;28;20032;-50
2022/09/12 04:43:40;;;;;;;26.70;21.27;;;13.10;92.70;;;;;;4998170;28;20429;-53
2022/09/12 04:46:10;;;;;;;24.70;21.98;;;13.10;92.70;;;;;;4991045;28;20138;-49
2022/09/12 04:48:36;;;;;;;23.55;21.15;;;13.10;92.70;;;;;;4985502;28;20109;-51
2022/09/12 04:51:07;;;;;;;23.15;20.75;;;13.10;92.60;;;;;;4981972;28;20031;-52
2022/09/12 04:53:32;;;;;;;25.88;21.42;;;13.10;92.70;;;;;;4990827;28;20034;-51
2022/09/12 04:56:07;;;;;;;23.60;21.10;;;13.20;92.70;;;;;;4983205;28;20188;-54
2022/09/12 04:58:33;;;;;;;24.27;21.67;;;13.20;92.60;;;;;;5007015;28;20031;-53
2022/09/12 05:01:06;;;;;;;24.15;21.55;;;13.20;92.60;;;;;;4990230;28;20037;-51
2022/09/12 05:03:32;;;;;;;24.58;21.90;;;13.10;92.60;;;;;;4983481;28;20451;-51
2022/09/12 05:06:01;;;;;;;22.60;20.27;;;13.20;92.50;;;;;;4991423;28;20045;-51
2022/09/12 05:08:26;;;;;;;24.48;21.92;;;13.10;92.50;;;;;;4983370;28;20058;-54
2022/09/12 05:10:54;;;;;;;21.80;19.63;;;13.20;92.50;;;;;;4970506;28;20080;-54
2022/09/12 05:13:21;;;;;;;24.55;22.05;;;13.20;92.50;;;;;;4993930;28;20027;-53
2022/09/12 05:15:57;;;;;;;24.13;21.27;;;13.20;92.40;;;;;;4975654;28;20102;-51
2022/09/12 05:18:22;;;;;;;22.23;20.17;;;13.20;92.40;;;;;;4982419;28;20030;-54
2022/09/12 05:20:48;;;;;;;24.08;21.52;;;13.30;92.30;;;;;;4985118;28;20030;-55
2022/09/12 05:23:13;;;;;;;22.63;20.23;;;13.30;92.40;;;;;;4995759;28;20026;-54
2022/09/12 05:25:46;;;;;;;22.20;19.92;;;13.40;92.30;;;;;;5001039;28;20069;-53
2022/09/12 05:28:12;;;;;;;22.65;20.30;;;13.30;92.00;;;;;;4993037;28;20036;-53
2022/09/12 05:30:40;;;;;;;22.17;19.95;;;13.40;92.10;;;;;;4991613;28;20109;-52
2022/09/12 05:33:05;;;;;;;23.85;21.38;;;13.30;92.00;;;;;;5007296;28;20026;-52
2022/09/12 05:35:33;;;;;;;22.10;19.88;;;13.30;91.90;;;;;;4993718;28;20101;-51
2022/09/12 05:37:59;;;;;;;22.02;19.83;;;13.40;91.90;;;;;;5009511;28;20018;-51
2022/09/12 05:40:24;;;;;;;21.92;19.67;;;13.40;91.90;;;;;;4990748;28;20077;-54
2022/09/12 05:42:50;;;;;;;21.25;19.17;;;13.40;91.80;;;;;;4998915;28;20034;-50
2022/09/12 05:45:15;;;;;;;21.25;19.05;;;13.40;91.90;;;;;;5015140;28;20397;-49
2022/09/12 05:47:42;;;;;;;20.65;18.63;;;13.40;91.80;;;;;;4998340;28;20034;-55
2022/09/12 05:50:09;;;;;;;23.05;20.63;;;13.40;91.70;;;;;;4991493;28;20033;-50
2022/09/12 05:52:36;;;;;;;22.17;20.05;;;13.40;91.70;;;;;;4988811;28;20061;-54
2022/09/12 05:55:02;;;;;;;21.48;19.27;;;13.50;91.60;;;;;;4997303;28;20025;-53
2022/09/12 05:57:28;;;;;;;20.48;18.63;;;13.50;91.50;;;;;;4997679;28;20026;-53
2022/09/12 05:59:56;;;;;;;20.83;18.58;;;13.50;91.40;;;;;;4994747;28;20026;-54
2022/09/12 06:02:22;;;;;;;22.45;20.23;;;13.50;91.40;;;;;;5001877;28;20045;-51
2022/09/12 06:04:49;;;;;;;19.77;17.70;;;13.50;91.40;;;;;;4985608;28;20364;-52
2022/09/12 06:07:15;;;;;;;24.60;18.60;;;13.60;91.50;;;;;;4988823;28;20030;-53
2022/09/12 06:09:43;;;;;;;21.48;19.45;;;13.60;91.50;;;;;;4991465;28;20031;-50
2022/09/12 06:12:08;;;;;;;20.60;18.60;;;13.60;91.30;;;;;;4991567;28;20489;-54
2022/09/12 06:14:37;;;;;;;22.13;19.77;;;13.70;91.20;;;;;;4985432;28;20143;-56
2022/09/12 06:17:04;;;;;;;20.47;18.37;;;13.70;91.10;;;;;;4991761;28;20447;-54
2022/09/12 06:19:29;;;;;;;22.38;20.15;;;13.80;91.20;;;;;;4983519;28;20023;-55
2022/09/12 06:21:55;;;;;;;21.25;19.13;;;13.90;91.00;;;;;;4972584;28;20047;-50
2022/09/12 06:24:24;;;;;;;20.33;18.33;;;14.00;91.10;;;;;;4977271;28;20175;-48
2022/09/12 06:26:51;;;;;;;20.55;18.55;;;14.00;90.70;;;;;;4976120;28;20054;-52
2022/09/12 06:29:18;;;;;;;22.15;20.05;;;14.10;90.50;;;;;;4995117;28;20056;-49
2022/09/12 06:31:44;;;;;;;20.80;18.70;;;14.20;90.40;;;;;;4983127;28;20157;-50
2022/09/12 06:34:15;;;;;;;21.08;19.10;;;14.30;90.20;;;;;;4976636;28;20030;-49
2022/09/12 06:36:45;;;;;;;21.33;19.17;;;14.40;90.20;;;;;;4981025;28;20163;-50
2022/09/12 06:39:16;;;;;;;22.02;19.83;;;14.50;90.20;;;;;;4990883;28;20030;-50
2022/09/12 06:41:43;;;;;;;21.30;19.25;;;14.50;89.90;;;;;;5007870;28;20081;-47
2022/09/12 06:44:18;;;;;;;21.20;19.13;;;14.70;90.00;;;;;;4999077;28;20112;-50
2022/09/12 06:46:44;;;;;;;23.27;20.77;;;14.80;90.10;;;;;;4990678;28;20447;-48
2022/09/12 06:49:10;;;;;;;24.48;21.95;;;14.90;89.90;;;;;;5002856;28;20031;-46
2022/09/12 06:51:35;;;;;;;24.25;21.38;;;15.00;89.80;;;;;;4990298;28;20041;-46
2022/09/12 06:54:04;;;;;;;28.95;24.15;;;15.10;89.70;;;;;;4987279;28;20132;-46
2022/09/12 06:56:30;;;;;;;23.42;21.15;;;15.30;89.60;;;;;;4980188;28;20111;-47
2022/09/12 06:58:59;;;;;;;21.10;19.00;;;15.40;89.60;;;;;;4974028;28;20027;-46
2022/09/12 07:01:28;;;;;;;23.20;21.00;;;15.60;89.50;;;;;;4989257;28;20034;-48
2022/09/12 07:03:59;;;;;;;39.03;23.85;;;15.60;89.20;;;;;;4988187;28;20034;-49
2022/09/12 07:06:30;;;;;;;25.63;21.35;;;15.70;89.00;;;;;;4953521;28;20238;-46
2022/09/12 07:09:00;;;;;;;24.63;21.48;;;15.70;88.90;;;;;;4975072;28;20430;-48
2022/09/12 07:11:30;;;;;;;42.60;25.52;;;15.90;89.30;;;;;;4982534;28;20045;-47
2022/09/12 07:14:00;;;;;;;32.60;25.02;;;15.80;88.70;;;;;;4989842;28;20078;-48
2022/09/12 07:16:26;;;;;;;46.78;24.77;;;15.90;88.80;;;;;;4986246;28;20027;-45
2022/09/12 07:19:00;;;;;;;31.20;22.60;;;15.90;88.90;;;;;;5005488;28;20033;-48
2022/09/12 07:21:27;;;;;;;42.72;24.60;;;15.90;89.00;;;;;;4988917;28;20474;-44
2022/09/12 07:23:56;;;;;;;28.52;23.73;;;15.90;88.80;;;;;;4989332;28;20061;-45
2022/09/12 07:26:25;;;;;;;45.70;26.02;;;15.90;89.00;;;;;;4989575;28;20347;-46
2022/09/12 07:28:53;;;;;;;27.92;23.58;;;15.90;88.80;;;;;;4983134;28;20039;-47
2022/09/12 07:31:21;;;;;;;28.55;23.02;;;16.00;88.80;;;;;;4973964;28;20429;-45
2022/09/12 07:33:49;;;;;;;26.52;23.42;;;16.00;88.60;;;;;;4973360;28;20018;-47
2022/09/12 07:36:18;;;;;;;29.90;25.17;;;16.10;88.90;;;;;;4998355;28;20039;-45
2022/09/12 07:38:49;;;;;;;104.28;31.20;;;16.10;88.80;;;;;;4988791;28;20022;-46
2022/09/12 07:41:19;;;;;;;30.58;21.85;;;16.10;88.60;;;;;;5000529;28;20034;-45
2022/09/12 07:43:45;;;;;;;29.10;23.83;;;16.20;88.70;;;;;;4979907;28;20514;-44
2022/09/12 07:46:11;;;;;;;38.75;24.02;;;16.20;88.70;;;;;;4976009;28;20057;-45
2022/09/12 07:48:39;;;;;;;40.97;22.67;;;16.30;88.80;;;;;;4985382;28;20046;-46
2022/09/12 07:51:07;;;;;;;27.98;24.23;;;16.40;89.10;;;;;;4987831;28;20515;-47
2022/09/12 07:53:36;;;;;;;26.83;23.90;;;16.40;88.60;;;;;;4987040;28;20459;-45
2022/09/12 07:56:03;;;;;;;28.08;25.38;;;16.50;88.00;;;;;;4989552;28;20027;-48
2022/09/12 07:58:32;;;;;;;27.33;24.63;;;16.50;88.30;;;;;;4988671;28;20525;-45
2022/09/12 08:01:07;;;;;;;26.23;23.55;;;16.50;88.00;;;;;;4981477;28;20030;-46
2022/09/12 08:03:33;;;;;;;51.65;28.38;;;16.50;87.80;;;;;;4972201;28;20057;-46
2022/09/12 08:06:08;;;;;;;29.98;23.33;;;16.60;87.90;;;;;;5002215;28;20084;-47
2022/09/12 08:08:34;;;;;;;31.45;23.27;;;16.70;88.00;;;;;;4987110;28;20502;-46
2022/09/12 08:11:05;;;;;;;34.15;23.48;;;16.80;87.90;;;;;;4980501;28;20034;-45
2022/09/12 08:13:32;;;;;;;24.70;19.95;;;16.90;87.30;;;;;;4983643;28;20093;-45
2022/09/12 08:15:59;;;;;;;31.65;20.60;;;17.00;87.70;;;;;;4989294;28;20022;-44
2022/09/12 08:18:29;;;;;;;27.55;24.02;;;17.20;87.70;;;;;;4980523;28;20033;-47
2022/09/12 08:21:07;;;;;;;26.13;23.45;;;17.40;86.90;;;;;;4979436;28;20467;-48
2022/09/12 08:23:35;;;;;;;28.37;22.47;;;17.40;86.80;;;;;;4994091;28;20039;-46
2022/09/12 08:26:03;;;;;;;79.72;28.05;;;17.50;86.10;;;;;;4986194;28;20030;-48
2022/09/12 08:28:30;;;;;;;34.60;23.42;;;17.50;85.70;;;;;;5000510;28;20043;-48
2022/09/12 08:31:04;;;;;;;28.83;22.45;;;17.60;85.50;;;;;;4978444;28;20097;-45
2022/09/12 08:33:34;;;;;;;85.75;28.85;;;17.80;85.10;;;;;;4985394;28;20289;-48
2022/09/12 08:36:26;;;;;;;37.20;23.20;;;17.90;85.20;;;;;;5005625;28;20038;-45
2022/09/12 08:39:01;;;;;;;24.13;21.90;;;18.00;85.10;;;;;;4992840;28;20022;-45
2022/09/12 08:41:33;;;;;;;25.58;23.02;;;18.10;84.50;;;;;;4985768;28;20027;-47
2022/09/12 08:45:00;;;;;;;26.23;23.83;;;18.20;83.30;;;;;;4988325;28;20030;-48
2022/09/12 08:47:31;;;;;;;26.40;22.25;;;18.30;83.10;;;;;;4972015;28;20042;-46
2022/09/12 08:50:11;;;;;;;39.40;23.30;;;18.40;83.40;;;;;;4976418;28;20026;-47
2022/09/12 08:52:58;;;;;;;26.83;20.85;;;18.50;83.90;;;;;;4983914;28;20050;-47
2022/09/12 08:55:37;;;;;;;36.22;23.67;;;18.60;82.60;;;;;;4986459;28;20069;-49
2022/09/12 08:58:19;;;;;;;27.63;21.70;;;18.50;81.80;;;;;;4970464;28;20133;-48
2022/09/12 09:01:02;;;;;;;25.80;21.27;;;18.50;82.60;;;;;;4988432;28;20049;-45
2022/09/12 09:03:49;;;;;;;23.05;19.17;;;18.60;81.80;;;;;;4972083;28;20532;-46
2022/09/12 09:06:24;;;;;;;23.92;21.40;;;18.70;82.20;;;;;;4992295;28;20414;-48
2022/09/12 09:09:21;;;;;;;25.10;22.42;;;18.60;81.20;;;;;;4990829;28;20034;-50
2022/09/12 09:12:00;;;;;;;22.95;20.67;;;18.60;81.30;;;;;;4989236;28;20096;-49
2022/09/12 09:14:46;;;;;;;23.30;21.02;;;18.80;82.00;;;;;;4989223;28;20034;-47
2022/09/12 09:17:24;;;;;;;22.90;20.73;;;18.80;82.20;;;;;;4977636;28;20034;-45
2022/09/12 09:20:15;;;;;;;20.45;18.20;;;18.80;81.10;;;;;;4983546;28;20042;-51
2022/09/12 09:22:46;;;;;;;22.25;19.52;;;18.80;81.20;;;;;;4984814;28;20034;-49
2022/09/12 09:25:19;;;;;;;21.10;18.65;;;18.80;81.40;;;;;;4986086;28;20042;-50
2022/09/12 09:27:57;;;;;;;20.00;17.73;;;18.90;82.00;;;;;;4979418;28;20315;-50
2022/09/12 09:30:23;;;;;;;20.40;18.30;;;18.90;81.40;;;;;;5005143;28;20042;-45
2022/09/12 09:32:53;;;;;;;18.05;16.17;;;18.90;80.80;;;;;;4989418;28;20027;-45
2022/09/12 09:35:40;;;;;;;20.15;17.90;;;18.90;81.40;;;;;;4989575;28;20034;-49
2022/09/12 09:38:23;;;;;;;22.05;18.38;;;18.90;81.30;;;;;;4988818;28;20031;-46
2022/09/12 09:41:15;;;;;;;18.80;16.80;;;18.70;80.80;;;;;;4998748;28;20033;-45
2022/09/12 09:43:40;;;;;;;21.92;18.83;;;18.70;81.40;;;;;;4985339;28;20034;-48
2022/09/12 09:46:06;;;;;;;20.70;18.55;;;18.70;81.10;;;;;;4991045;28;20193;-47
2022/09/12 09:48:35;;;;;;;21.63;19.45;;;18.70;81.20;;;;;;4989401;28;20041;-48
2022/09/12 09:51:04;;;;;;;20.95;18.67;;;18.80;81.00;;;;;;4987051;28;20049;-47
2022/09/12 09:53:41;;;;;;;20.77;18.60;;;18.90;81.40;;;;;;4988572;28;20040;-45
2022/09/12 09:56:29;;;;;;;19.70;17.65;;;19.10;80.90;;;;;;5003708;28;20089;-50
2022/09/12 09:58:55;;;;;;;17.30;15.50;;;19.30;79.70;;;;;;4995548;28;20034;-49
2022/09/12 10:01:21;;;;;;;18.60;16.08;;;19.40;80.20;;;;;;4978516;28;20027;-47
2022/09/12 10:03:54;;;;;;;19.17;17.15;;;19.60;79.60;;;;;;4991202;28;20064;-49
2022/09/12 10:06:20;;;;;;;19.00;14.88;;;19.70;78.00;;;;;;4997395;28;20053;-46
2022/09/12 10:08:49;;;;;;;17.75;15.68;;;19.80;78.40;;;;;;5001289;28;20068;-45
2022/09/12 10:11:14;;;;;;;16.98;14.75;;;19.80;78.10;;;;;;5000808;28;20447;-47
2022/09/12 10:13:55;;;;;;;22.88;16.27;;;19.90;76.80;;;;;;4994882;28;20030;-50
2022/09/12 10:16:21;;;;;;;15.75;14.15;;;19.90;76.80;;;;;;4984676;28;20027;-47
2022/09/12 10:18:49;;;;;;;17.98;14.10;;;19.90;77.10;;;;;;4984529;28;20026;-46
2022/09/12 10:21:57;;;;;;;16.38;13.98;;;20.10;77.00;;;;;;4990037;28;20046;-46
2022/09/12 10:24:46;;;;;;;15.93;14.02;;;20.10;76.80;;;;;;4992092;28;20030;-46
2022/09/12 10:27:11;;;;;;;15.10;13.47;;;20.20;76.60;;;;;;4974127;28;20027;-47
2022/09/12 10:30:16;;;;;;;16.05;12.68;;;20.20;75.80;;;;;;4983256;28;20293;-45
2022/09/12 10:32:45;;;;;;;41.53;13.90;;;20.10;76.00;;;;;;4975898;28;20046;-48
2022/09/12 10:35:17;;;;;;;14.25;12.85;;;20.10;75.90;;;;;;4976862;28;20049;-46
2022/09/12 10:38:05;;;;;;;14.48;12.98;;;20.20;75.90;;;;;;4963992;28;20458;-49
2022/09/12 10:40:38;;;;;;;23.67;14.75;;;20.30;74.20;;;;;;4980466;28;20034;-47
2022/09/12 10:43:28;;;;;;;18.65;13.05;;;20.30;74.60;;;;;;4972309;28;20049;-46
2022/09/12 10:45:58;;;;;;;14.88;11.30;;;20.30;74.30;;;;;;4969161;28;20515;-48
2022/09/12 10:48:29;;;;;;;13.40;10.98;;;20.40;74.60;;;;;;4966676;28;20548;-48
2022/09/12 10:50:55;;;;;;;17.08;12.93;;;20.60;74.00;;;;;;4972202;28;20035;-46
2022/09/12 10:53:26;;;;;;;14.82;13.15;;;20.90;73.60;;;;;;4982208;28;20038;-46
2022/09/12 10:56:00;;;;;;;18.98;14.07;;;20.90;72.40;;;;;;4986004;28;20034;-46
2022/09/12 10:58:55;;;;;;;13.50;11.18;;;21.00;72.20;;;;;;4982656;28;20106;-47
2022/09/12 11:01:40;;;;;;;13.10;10.32;;;21.00;72.80;;;;;;4982692;28;20035;-48
2022/09/12 11:04:17;;;;;;;14.05;10.95;;;21.10;71.60;;;;;;4987216;28;20030;-47
2022/09/12 11:07:11;;;;;;;14.15;10.50;;;21.10;72.20;;;;;;4990252;28;20101;-44
2022/09/12 11:09:58;;;;;;;10.93;9.82;;;21.40;72.50;;;;;;4988966;28;20083;-46
2022/09/12 11:12:41;;;;;;;10.07;8.68;;;21.60;69.00;;;;;;4986919;28;20038;-48
2022/09/12 11:15:28;;;;;;;12.85;9.48;;;21.70;69.50;;;;;;4979818;28;20085;-50
2022/09/12 11:18:06;;;;;;;13.20;10.02;;;21.80;70.30;;;;;;4978096;28;20026;-47
2022/09/12 11:20:53;;;;;;;11.45;10.27;;;22.00;70.90;;;;;;4979986;28;20027;-49
2022/09/12 11:23:40;;;;;;;11.77;10.20;;;22.20;69.20;;;;;;4979231;28;20459;-45
2022/09/12 11:26:33;;;;;;;13.35;9.63;;;22.40;68.40;;;;;;4990002;28;20049;-46
2022/09/12 11:29:11;;;;;;;9.77;8.65;;;22.20;68.00;;;;;;5005147;28;20046;-46
2022/09/12 11:31:55;;;;;;;9.60;8.60;;;22.30;67.70;;;;;;4982699;28;20048;-46
2022/09/12 11:34:34;;;;;;;11.00;9.55;;;22.30;66.40;;;;;;4972596;28;20710;-45
2022/09/12 11:37:39;;;;;;;11.23;9.02;;;22.20;66.80;;;;;;4984961;28;20023;-47
2022/09/12 11:40:31;;;;;;;11.73;7.88;;;21.90;67.00;;;;;;4988089;28;20026;-48
2022/09/12 11:43:15;;;;;;;11.05;8.23;;;21.90;67.10;;;;;;4975730;28;20433;-48
2022/09/12 11:45:43;;;;;;;11.05;8.75;;;21.90;65.60;;;;;;4970531;28;20112;-48
2022/09/12 11:48:37;;;;;;;9.38;7.38;;;22.00;65.70;;;;;;4969495;28;20034;-47
2022/09/12 11:51:06;;;;;;;10.70;8.15;;;22.10;66.20;;;;;;4978318;28;20414;-46
2022/09/12 11:53:37;;;;;;;8.02;7.15;;;21.90;65.20;;;;;;5002775;28;20061;-45
2022/09/12 11:56:26;;;;;;;9.25;8.27;;;22.10;65.70;;;;;;4988779;28;20088;-49
2022/09/12 11:58:59;;;;;;;11.50;7.85;;;21.90;64.50;;;;;;4989102;28;20432;-48
2022/09/12 12:01:30;;;;;;;8.63;7.72;;;21.90;65.50;;;;;;4978413;28;20126;-46
2022/09/12 12:04:00;;;;;;;11.23;9.25;;;22.00;64.90;;;;;;4972754;28;20046;-47
2022/09/12 12:06:45;;;;;;;11.50;9.98;;;22.10;65.10;;;;;;4979875;28;20022;-46
2022/09/12 12:09:12;;;;;;;12.23;9.00;;;22.10;64.70;;;;;;4989330;28;20049;-46
2022/09/12 12:11:46;;;;;;;9.93;8.93;;;22.10;64.20;;;;;;4977656;28;20027;-47
2022/09/12 12:14:28;;;;;;;10.82;9.10;;;22.20;65.90;;;;;;4975034;28;20435;-47
2022/09/12 12:16:54;;;;;;;10.80;7.75;;;22.20;64.30;;;;;;4988830;28;20368;-48
2022/09/12 12:19:33;;;;;;;12.02;8.20;;;22.30;65.50;;;;;;4997835;28;20031;-46
2022/09/12 12:22:19;;;;;;;10.90;8.85;;;22.40;63.30;;;;;;4973284;28;20044;-50
2022/09/12 12:25:05;;;;;;;12.25;8.43;;;22.50;63.30;;;;;;4989601;28;20030;-46
2022/09/12 12:27:45;;;;;;;8.50;6.18;;;22.70;62.00;;;;;;4988160;28;20037;-46
2022/09/12 12:30:29;;;;;;;8.20;6.63;;;22.90;63.00;;;;;;4982366;28;20386;-45
2022/09/12 12:33:08;;;;;;;11.15;7.78;;;22.90;62.30;;;;;;4984978;28;20505;-50
2022/09/12 12:35:40;;;;;;;11.23;8.70;;;23.00;61.50;;;;;;4982137;28;20067;-45
2022/09/12 12:38:24;;;;;;;8.18;6.88;;;22.80;61.40;;;;;;4979292;28;20038;-44
2022/09/12 12:40:53;;;;;;;7.70;5.70;;;22.60;62.60;;;;;;4992012;28;20178;-45
2022/09/12 12:43:30;;;;;;;10.63;6.80;;;22.40;60.80;;;;;;4988382;28;20058;-47
2022/09/12 12:46:07;;;;;;;8.98;6.60;;;22.30;61.60;;;;;;4993267;28;20088;-46
2022/09/12 12:48:43;;;;;;;10.10;7.15;;;22.30;63.50;;;;;;5000377;28;20035;-45
2022/09/12 12:51:30;;;;;;;9.80;7.72;;;22.30;63.00;;;;;;4994063;28;20035;-45
2022/09/12 12:53:57;;;;;;;8.90;6.60;;;22.30;62.20;;;;;;4981162;28;20040;-46
2022/09/12 12:56:38;;;;;;;7.97;6.05;;;22.20;61.70;;;;;;4973708;28;20027;-48
2022/09/12 12:59:15;;;;;;;11.32;7.45;;;22.20;63.00;;;;;;4988977;28;20161;-47
2022/09/12 13:01:48;;;;;;;9.90;6.03;;;22.20;61.80;;;;;;4991745;28;20038;-47